Hovedside
METAR-TAF:

METAR-TAF

Lufthavner :

Örnsköldsvik, Sverige

Örnsköldsvik lufthavn

breddegrad: 63-24N, lengdegrad: 018-58E, høyde over havet: 103 m

Gjeldene værobservasjon

Denne rapporten ble laget for 19 minutter siden, klokken 22:20 UTC
Vind 2 kt fra Nordøst
Temperatur 15°C
Luftfuktighet 88%
Trykk 1015 hPa
Sikt 10 km eller mer

METAR: ESNO 242220Z AUTO 04002KT 9999 OVC051/// 15/13 Q1015

Tid: 00:39 (22:39 UTC)

Varsel

Denne rapporten ble laget for 11 timer og 9 minutter siden, klokken 11:30 UTC
Varsel gyldig fra 24. klokken 12 UTC til 24. klokken 16 UTC
Vind 5 kt fra Nord
Sikt 10 km eller mer
ingen skyer under 1500 m og ingen bygeskyer
Sannsynlighet 40%
fra 24. klokken 12 UTC til 24. klokken 13 UTC
Spredte skyer i en høyde av 5000 ft, Bygeskyer.
regnbyger

TAF: ESNO 241130Z 2412/2416 35005KT CAVOK PROB40 2412/2413 SHRA SCT050CB

Værobservasjoner og værvarsel for over 4000 flyplasser (METAR- og TAF-rapporter).

Tilgjengelige stasjoner er representert av de røde og gule prikkene på kartet.

Hold musepekeren over prikken for å se navnet på stasjonen.

Klikk så for å se værobservasjoner og -varsler.

For å forandre kartet kan du klikke på den grønne knappen med svart kryss for å zoome inn, på den grønne knappen med strek for å zoome ut, eller på de grønne pilene for å se tilstøtende kart.


METAR-TAF: